sensor_id;sensor_type;location;lat;lon;timestamp;P1;durP1;ratioP1;P2;durP2;ratioP2
67747;SDS011;54543;50.712;6.070;2023-04-01T00:00:55;3.75;;;0.95;;
67747;SDS011;54543;50.712;6.070;2023-04-01T00:03:21;3.05;;;1.00;;
67747;SDS011;54543;50.712;6.070;2023-04-01T00:05:48;2.55;;;0.90;;
67747;SDS011;54543;50.712;6.070;2023-04-01T00:08:15;2.45;;;1.25;;
67747;SDS011;54543;50.712;6.070;2023-04-01T00:10:41;2.05;;;0.70;;
67747;SDS011;54543;50.712;6.070;2023-04-01T00:13:07;3.13;;;0.98;;
67747;SDS011;54543;50.712;6.070;2023-04-01T00:15:33;1.63;;;0.70;;
67747;SDS011;54543;50.712;6.070;2023-04-01T00:17:59;2.33;;;0.52;;
67747;SDS011;54543;50.712;6.070;2023-04-01T00:20:26;1.35;;;0.65;;
67747;SDS011;54543;50.712;6.070;2023-04-01T00:22:51;1.77;;;0.70;;
67747;SDS011;54543;50.712;6.070;2023-04-01T00:25:17;2.35;;;1.02;;
67747;SDS011;54543;50.712;6.070;2023-04-01T00:27:43;3.10;;;0.70;;
67747;SDS011;54543;50.712;6.070;2023-04-01T00:30:09;1.88;;;0.75;;
67747;SDS011;54543;50.712;6.070;2023-04-01T00:32:36;0.63;;;0.50;;
67747;SDS011;54543;50.712;6.070;2023-04-01T00:35:01;2.25;;;0.80;;
67747;SDS011;54543;50.712;6.070;2023-04-01T00:37:28;1.67;;;0.50;;
67747;SDS011;54543;50.712;6.070;2023-04-01T00:39:54;3.47;;;0.85;;
67747;SDS011;54543;50.712;6.070;2023-04-01T00:42:20;2.92;;;1.00;;
67747;SDS011;54543;50.712;6.070;2023-04-01T00:44:55;2.00;;;0.60;;
67747;SDS011;54543;50.712;6.070;2023-04-01T00:47:21;2.40;;;0.60;;
67747;SDS011;54543;50.712;6.070;2023-04-01T00:49:49;2.80;;;0.60;;
67747;SDS011;54543;50.712;6.070;2023-04-01T00:52:21;2.20;;;0.70;;
67747;SDS011;54543;50.712;6.070;2023-04-01T00:54:49;3.28;;;1.02;;
67747;SDS011;54543;50.712;6.070;2023-04-01T00:57:20;2.08;;;0.88;;
67747;SDS011;54543;50.712;6.070;2023-04-01T00:59:50;0.68;;;0.47;;
67747;SDS011;54543;50.712;6.070;2023-04-01T01:02:19;0.90;;;0.60;;
67747;SDS011;54543;50.712;6.070;2023-04-01T01:04:45;2.15;;;0.50;;
67747;SDS011;54543;50.712;6.070;2023-04-01T01:23:39;1.33;;;0.50;;
67747;SDS011;54543;50.712;6.070;2023-04-01T01:34:53;1.63;;;0.60;;
67747;SDS011;54543;50.712;6.070;2023-04-01T01:37:31;0.35;;;0.30;;
67747;SDS011;54543;50.712;6.070;2023-04-01T01:39:59;1.10;;;0.70;;
67747;SDS011;54543;50.712;6.070;2023-04-01T01:42:28;0.70;;;0.38;;
67747;SDS011;54543;50.712;6.070;2023-04-01T01:44:56;1.55;;;0.47;;
67747;SDS011;54543;50.712;6.070;2023-04-01T01:47:24;1.67;;;0.65;;
67747;SDS011;54543;50.712;6.070;2023-04-01T01:49:51;1.00;;;0.47;;
67747;SDS011;54543;50.712;6.070;2023-04-01T01:52:19;1.50;;;0.65;;
67747;SDS011;54543;50.712;6.070;2023-04-01T01:54:53;0.65;;;0.50;;
67747;SDS011;54543;50.712;6.070;2023-04-01T01:57:23;1.40;;;0.45;;
67747;SDS011;54543;50.712;6.070;2023-04-01T02:00:02;0.95;;;0.50;;
67747;SDS011;54543;50.712;6.070;2023-04-01T02:02:39;1.02;;;0.63;;
67747;SDS011;54543;50.712;6.070;2023-04-01T02:05:09;0.98;;;0.60;;
67747;SDS011;54543;50.712;6.070;2023-04-01T02:07:41;1.55;;;0.75;;
67747;SDS011;54543;50.712;6.070;2023-04-01T02:10:09;1.50;;;0.52;;
67747;SDS011;54543;50.712;6.070;2023-04-01T02:12:35;0.90;;;0.63;;
67747;SDS011;54543;50.712;6.070;2023-04-01T02:15:06;2.17;;;0.70;;
67747;SDS011;54543;50.712;6.070;2023-04-01T02:17:35;2.05;;;0.60;;
67747;SDS011;54543;50.712;6.070;2023-04-01T02:22:43;0.77;;;0.30;;
67747;SDS011;54543;50.712;6.070;2023-04-01T02:25:16;1.30;;;0.55;;
67747;SDS011;54543;50.712;6.070;2023-04-01T02:27:46;1.25;;;0.50;;
67747;SDS011;54543;50.712;6.070;2023-04-01T02:30:12;0.77;;;0.52;;
67747;SDS011;54543;50.712;6.070;2023-04-01T02:32:39;0.52;;;0.45;;
67747;SDS011;54543;50.712;6.070;2023-04-01T02:35:06;1.00;;;0.40;;
67747;SDS011;54543;50.712;6.070;2023-04-01T02:37:34;0.90;;;0.52;;
67747;SDS011;54543;50.712;6.070;2023-04-01T02:40:03;1.02;;;0.60;;
67747;SDS011;54543;50.712;6.070;2023-04-01T02:42:31;0.32;;;0.32;;
67747;SDS011;54543;50.712;6.070;2023-04-01T02:44:57;1.05;;;0.40;;
67747;SDS011;54543;50.712;6.070;2023-04-01T02:47:22;0.60;;;0.30;;
67747;SDS011;54543;50.712;6.070;2023-04-01T02:49:48;1.67;;;0.60;;
67747;SDS011;54543;50.712;6.070;2023-04-01T02:52:13;0.50;;;0.30;;
67747;SDS011;54543;50.712;6.070;2023-04-01T02:54:39;0.38;;;0.38;;
67747;SDS011;54543;50.712;6.070;2023-04-01T02:57:05;2.15;;;0.35;;
67747;SDS011;54543;50.712;6.070;2023-04-01T02:59:31;0.90;;;0.40;;
67747;SDS011;54543;50.712;6.070;2023-04-01T03:01:57;3.35;;;1.45;;
67747;SDS011;54543;50.712;6.070;2023-04-01T03:04:22;1.70;;;0.40;;
67747;SDS011;54543;50.712;6.070;2023-04-01T03:06:47;0.88;;;0.47;;
67747;SDS011;54543;50.712;6.070;2023-04-01T03:09:13;0.98;;;0.50;;
67747;SDS011;54543;50.712;6.070;2023-04-01T03:11:39;1.67;;;0.40;;
67747;SDS011;54543;50.712;6.070;2023-04-01T03:14:05;0.25;;;0.25;;
67747;SDS011;54543;50.712;6.070;2023-04-01T03:16:32;0.68;;;0.40;;
67747;SDS011;54543;50.712;6.070;2023-04-01T03:18:58;0.93;;;0.50;;
67747;SDS011;54543;50.712;6.070;2023-04-01T03:21:24;1.27;;;0.30;;
67747;SDS011;54543;50.712;6.070;2023-04-01T03:23:51;2.28;;;0.40;;
67747;SDS011;54543;50.712;6.070;2023-04-01T03:26:16;1.13;;;0.40;;
67747;SDS011;54543;50.712;6.070;2023-04-01T03:28:42;1.05;;;0.50;;
67747;SDS011;54543;50.712;6.070;2023-04-01T03:31:08;3.00;;;0.60;;
67747;SDS011;54543;50.712;6.070;2023-04-01T03:33:34;0.50;;;0.35;;
67747;SDS011;54543;50.712;6.070;2023-04-01T03:36:00;0.35;;;0.35;;
67747;SDS011;54543;50.712;6.070;2023-04-01T03:38:26;1.60;;;0.80;;
67747;SDS011;54543;50.712;6.070;2023-04-01T03:40:51;1.35;;;0.50;;
67747;SDS011;54543;50.712;6.070;2023-04-01T03:43:17;0.68;;;0.40;;
67747;SDS011;54543;50.712;6.070;2023-04-01T03:45:49;0.65;;;0.30;;
67747;SDS011;54543;50.712;6.070;2023-04-01T03:48:15;2.22;;;0.52;;
67747;SDS011;54543;50.712;6.070;2023-04-01T03:50:41;0.60;;;0.32;;
67747;SDS011;54543;50.712;6.070;2023-04-01T03:53:07;0.57;;;0.38;;
67747;SDS011;54543;50.712;6.070;2023-04-01T03:55:35;0.40;;;0.40;;
67747;SDS011;54543;50.712;6.070;2023-04-01T03:58:01;0.35;;;0.35;;
67747;SDS011;54543;50.712;6.070;2023-04-01T04:00:28;1.60;;;0.60;;
67747;SDS011;54543;50.712;6.070;2023-04-01T04:02:54;1.05;;;0.50;;
67747;SDS011;54543;50.712;6.070;2023-04-01T04:05:22;0.47;;;0.47;;
67747;SDS011;54543;50.712;6.070;2023-04-01T04:07:49;0.40;;;0.40;;
67747;SDS011;54543;50.712;6.070;2023-04-01T04:10:14;0.70;;;0.43;;
67747;SDS011;54543;50.712;6.070;2023-04-01T04:12:40;2.28;;;0.90;;
67747;SDS011;54543;50.712;6.070;2023-04-01T04:15:06;0.60;;;0.50;;
67747;SDS011;54543;50.712;6.070;2023-04-01T04:17:32;0.73;;;0.40;;
67747;SDS011;54543;50.712;6.070;2023-04-01T04:19:58;0.95;;;0.50;;
67747;SDS011;54543;50.712;6.070;2023-04-01T04:22:23;0.75;;;0.50;;
67747;SDS011;54543;50.712;6.070;2023-04-01T04:24:49;0.50;;;0.50;;
67747;SDS011;54543;50.712;6.070;2023-04-01T04:27:14;1.08;;;0.65;;
67747;SDS011;54543;50.712;6.070;2023-04-01T04:29:40;1.10;;;0.63;;
67747;SDS011;54543;50.712;6.070;2023-04-01T04:32:06;0.63;;;0.60;;
67747;SDS011;54543;50.712;6.070;2023-04-01T04:34:31;1.73;;;0.70;;
67747;SDS011;54543;50.712;6.070;2023-04-01T04:36:57;1.42;;;0.90;;
67747;SDS011;54543;50.712;6.070;2023-04-01T04:39:22;1.88;;;1.08;;
67747;SDS011;54543;50.712;6.070;2023-04-01T04:41:48;1.70;;;1.20;;
67747;SDS011;54543;50.712;6.070;2023-04-01T04:44:13;1.45;;;1.10;;
67747;SDS011;54543;50.712;6.070;2023-04-01T04:46:39;5.07;;;1.20;;
67747;SDS011;54543;50.712;6.070;2023-04-01T04:49:05;2.15;;;1.15;;
67747;SDS011;54543;50.712;6.070;2023-04-01T04:51:31;1.67;;;1.00;;
67747;SDS011;54543;50.712;6.070;2023-04-01T04:53:59;1.42;;;1.10;;
67747;SDS011;54543;50.712;6.070;2023-04-01T04:56:25;2.53;;;1.40;;
67747;SDS011;54543;50.712;6.070;2023-04-01T04:58:51;5.18;;;1.75;;
67747;SDS011;54543;50.712;6.070;2023-04-01T05:01:17;1.92;;;1.27;;
67747;SDS011;54543;50.712;6.070;2023-04-01T05:03:43;1.92;;;1.17;;
67747;SDS011;54543;50.712;6.070;2023-04-01T05:06:11;6.88;;;3.08;;
67747;SDS011;54543;50.712;6.070;2023-04-01T05:08:38;3.67;;;2.25;;
67747;SDS011;54543;50.712;6.070;2023-04-01T05:11:06;6.55;;;3.78;;
67747;SDS011;54543;50.712;6.070;2023-04-01T05:13:35;6.80;;;3.42;;
67747;SDS011;54543;50.712;6.070;2023-04-01T05:16:01;6.35;;;4.03;;
67747;SDS011;54543;50.712;6.070;2023-04-01T05:18:27;5.10;;;3.00;;
67747;SDS011;54543;50.712;6.070;2023-04-01T05:20:53;6.72;;;3.03;;
67747;SDS011;54543;50.712;6.070;2023-04-01T05:23:19;5.38;;;3.50;;
67747;SDS011;54543;50.712;6.070;2023-04-01T05:25:49;5.45;;;3.10;;
67747;SDS011;54543;50.712;6.070;2023-04-01T05:28:19;10.18;;;3.75;;
67747;SDS011;54543;50.712;6.070;2023-04-01T05:30:45;5.78;;;2.83;;
67747;SDS011;54543;50.712;6.070;2023-04-01T05:33:11;8.68;;;3.80;;
67747;SDS011;54543;50.712;6.070;2023-04-01T05:35:38;25.88;;;11.25;;
67747;SDS011;54543;50.712;6.070;2023-04-01T05:38:04;9.07;;;4.18;;
67747;SDS011;54543;50.712;6.070;2023-04-01T05:40:30;8.15;;;4.07;;
67747;SDS011;54543;50.712;6.070;2023-04-01T05:42:56;11.18;;;6.10;;
67747;SDS011;54543;50.712;6.070;2023-04-01T05:45:23;6.97;;;3.70;;
67747;SDS011;54543;50.712;6.070;2023-04-01T05:47:48;9.60;;;4.45;;
67747;SDS011;54543;50.712;6.070;2023-04-01T05:50:14;7.03;;;3.70;;
67747;SDS011;54543;50.712;6.070;2023-04-01T05:52:40;6.82;;;3.30;;
67747;SDS011;54543;50.712;6.070;2023-04-01T05:55:05;7.75;;;3.83;;
67747;SDS011;54543;50.712;6.070;2023-04-01T05:57:32;8.18;;;3.72;;
67747;SDS011;54543;50.712;6.070;2023-04-01T05:59:57;7.43;;;4.30;;
67747;SDS011;54543;50.712;6.070;2023-04-01T06:02:23;7.78;;;4.78;;
67747;SDS011;54543;50.712;6.070;2023-04-01T06:04:49;8.73;;;4.70;;
67747;SDS011;54543;50.712;6.070;2023-04-01T06:07:19;11.23;;;5.85;;
67747;SDS011;54543;50.712;6.070;2023-04-01T06:09:44;8.55;;;4.30;;
67747;SDS011;54543;50.712;6.070;2023-04-01T06:15:23;7.22;;;4.13;;
67747;SDS011;54543;50.712;6.070;2023-04-01T06:23:17;6.43;;;3.50;;
67747;SDS011;54543;50.712;6.070;2023-04-01T06:26:07;6.53;;;3.60;;
67747;SDS011;54543;50.712;6.070;2023-04-01T06:31:13;5.72;;;2.85;;
67747;SDS011;54543;50.712;6.070;2023-04-01T06:33:57;4.32;;;2.50;;
67747;SDS011;54543;50.712;6.070;2023-04-01T06:44:39;3.95;;;2.22;;
67747;SDS011;54543;50.712;6.070;2023-04-01T07:01:28;4.00;;;2.58;;
67747;SDS011;54543;50.712;6.070;2023-04-01T07:04:00;4.20;;;2.63;;
67747;SDS011;54543;50.712;6.070;2023-04-01T07:07:12;4.90;;;2.17;;
67747;SDS011;54543;50.712;6.070;2023-04-01T07:09:27;3.58;;;2.00;;
67747;SDS011;54543;50.712;6.070;2023-04-01T07:12:02;4.25;;;2.28;;
67747;SDS011;54543;50.712;6.070;2023-04-01T07:14:51;5.18;;;2.53;;
67747;SDS011;54543;50.712;6.070;2023-04-01T07:17:23;5.93;;;2.50;;
67747;SDS011;54543;50.712;6.070;2023-04-01T07:19:53;4.53;;;2.88;;
67747;SDS011;54543;50.712;6.070;2023-04-01T07:25:02;4.32;;;2.50;;
67747;SDS011;54543;50.712;6.070;2023-04-01T07:27:36;4.35;;;2.47;;
67747;SDS011;54543;50.712;6.070;2023-04-01T07:30:03;4.03;;;2.50;;
67747;SDS011;54543;50.712;6.070;2023-04-01T07:44:28;2.95;;;1.83;;
67747;SDS011;54543;50.712;6.070;2023-04-01T07:49:56;4.20;;;2.20;;
67747;SDS011;54543;50.712;6.070;2023-04-01T07:55:03;4.30;;;2.30;;
67747;SDS011;54543;50.712;6.070;2023-04-01T08:05:30;3.40;;;2.00;;
67747;SDS011;54543;50.712;6.070;2023-04-01T08:11:08;4.50;;;2.80;;
67747;SDS011;54543;50.712;6.070;2023-04-01T08:13:40;3.22;;;2.20;;
67747;SDS011;54543;50.712;6.070;2023-04-01T08:22:07;3.80;;;1.80;;
67747;SDS011;54543;50.712;6.070;2023-04-01T08:27:12;4.63;;;2.03;;
67747;SDS011;54543;50.712;6.070;2023-04-01T08:32:32;4.25;;;2.50;;
67747;SDS011;54543;50.712;6.070;2023-04-01T08:37:43;3.53;;;2.10;;
67747;SDS011;54543;50.712;6.070;2023-04-01T09:26:18;7.13;;;2.72;;
67747;SDS011;54543;50.712;6.070;2023-04-01T09:29:12;6.20;;;2.80;;
67747;SDS011;54543;50.712;6.070;2023-04-01T09:35:02;7.22;;;3.53;;
67747;SDS011;54543;50.712;6.070;2023-04-01T09:48:55;2.80;;;1.60;;
67747;SDS011;54543;50.712;6.070;2023-04-01T09:51:58;4.20;;;2.42;;
67747;SDS011;54543;50.712;6.070;2023-04-01T09:55:06;6.35;;;2.63;;
67747;SDS011;54543;50.712;6.070;2023-04-01T10:23:10;3.40;;;1.92;;
67747;SDS011;54543;50.712;6.070;2023-04-01T10:31:55;3.55;;;1.80;;
67747;SDS011;54543;50.712;6.070;2023-04-01T10:46:33;4.30;;;1.92;;
67747;SDS011;54543;50.712;6.070;2023-04-01T10:57:48;2.55;;;1.67;;
67747;SDS011;54543;50.712;6.070;2023-04-01T11:03:36;4.00;;;1.83;;
67747;SDS011;54543;50.712;6.070;2023-04-01T11:06:47;3.35;;;1.58;;
67747;SDS011;54543;50.712;6.070;2023-04-01T11:14:49;7.13;;;3.13;;
67747;SDS011;54543;50.712;6.070;2023-04-01T11:31:47;5.10;;;3.08;;
67747;SDS011;54543;50.712;6.070;2023-04-01T11:42:37;3.60;;;2.33;;
67747;SDS011;54543;50.712;6.070;2023-04-01T11:58:40;3.55;;;2.17;;
67747;SDS011;54543;50.712;6.070;2023-04-01T12:04:05;3.33;;;2.15;;
67747;SDS011;54543;50.712;6.070;2023-04-01T12:09:37;3.10;;;2.00;;
67747;SDS011;54543;50.712;6.070;2023-04-01T12:36:07;3.67;;;1.92;;
67747;SDS011;54543;50.712;6.070;2023-04-01T12:38:43;4.93;;;3.00;;
67747;SDS011;54543;50.712;6.070;2023-04-01T12:49:33;4.30;;;2.95;;
67747;SDS011;54543;50.712;6.070;2023-04-01T12:52:14;4.40;;;3.00;;
67747;SDS011;54543;50.712;6.070;2023-04-01T12:55:25;5.72;;;3.22;;
67747;SDS011;54543;50.712;6.070;2023-04-01T13:11:36;5.07;;;3.20;;
67747;SDS011;54543;50.712;6.070;2023-04-01T13:19:41;4.38;;;2.85;;
67747;SDS011;54543;50.712;6.070;2023-04-01T13:27:55;4.35;;;2.60;;
67747;SDS011;54543;50.712;6.070;2023-04-01T13:30:39;6.28;;;2.92;;
67747;SDS011;54543;50.712;6.070;2023-04-01T13:41:13;5.30;;;3.17;;
67747;SDS011;54543;50.712;6.070;2023-04-01T13:43:58;4.45;;;2.97;;
67747;SDS011;54543;50.712;6.070;2023-04-01T13:46:43;4.80;;;2.50;;
67747;SDS011;54543;50.712;6.070;2023-04-01T13:49:46;3.25;;;2.10;;
67747;SDS011;54543;50.712;6.070;2023-04-01T13:52:33;3.95;;;2.35;;
67747;SDS011;54543;50.712;6.070;2023-04-01T13:57:56;3.78;;;2.33;;
67747;SDS011;54543;50.712;6.070;2023-04-01T14:00:50;3.83;;;2.42;;
67747;SDS011;54543;50.712;6.070;2023-04-01T14:03:28;3.33;;;2.17;;
67747;SDS011;54543;50.712;6.070;2023-04-01T14:14:21;3.85;;;2.65;;
67747;SDS011;54543;50.712;6.070;2023-04-01T14:22:59;7.32;;;3.75;;
67747;SDS011;54543;50.712;6.070;2023-04-01T14:25:58;5.55;;;3.60;;
67747;SDS011;54543;50.712;6.070;2023-04-01T14:44:57;4.38;;;2.78;;
67747;SDS011;54543;50.712;6.070;2023-04-01T14:50:20;4.10;;;2.50;;
67747;SDS011;54543;50.712;6.070;2023-04-01T14:55:32;4.43;;;2.67;;
67747;SDS011;54543;50.712;6.070;2023-04-01T14:58:09;3.83;;;2.20;;
67747;SDS011;54543;50.712;6.070;2023-04-01T15:00:47;3.78;;;2.25;;
67747;SDS011;54543;50.712;6.070;2023-04-01T15:03:29;4.20;;;2.60;;
67747;SDS011;54543;50.712;6.070;2023-04-01T15:09:04;3.78;;;2.15;;
67747;SDS011;54543;50.712;6.070;2023-04-01T15:22:52;3.75;;;2.35;;
67747;SDS011;54543;50.712;6.070;2023-04-01T15:38:57;5.32;;;2.92;;
67747;SDS011;54543;50.712;6.070;2023-04-01T15:53:02;4.82;;;2.85;;
67747;SDS011;54543;50.712;6.070;2023-04-01T15:55:48;4.43;;;2.30;;
67747;SDS011;54543;50.712;6.070;2023-04-01T16:16:13;3.25;;;1.98;;
67747;SDS011;54543;50.712;6.070;2023-04-01T16:21:56;7.05;;;1.88;;
67747;SDS011;54543;50.712;6.070;2023-04-01T16:24:43;4.25;;;2.20;;
67747;SDS011;54543;50.712;6.070;2023-04-01T16:30:00;4.25;;;2.25;;
67747;SDS011;54543;50.712;6.070;2023-04-01T16:36:13;2.72;;;1.85;;
67747;SDS011;54543;50.712;6.070;2023-04-01T16:41:35;4.60;;;2.83;;
67747;SDS011;54543;50.712;6.070;2023-04-01T16:44:25;4.07;;;2.45;;
67747;SDS011;54543;50.712;6.070;2023-04-01T16:46:58;4.22;;;2.72;;
67747;SDS011;54543;50.712;6.070;2023-04-01T16:55:14;5.18;;;2.80;;
67747;SDS011;54543;50.712;6.070;2023-04-01T16:57:50;5.45;;;3.08;;
67747;SDS011;54543;50.712;6.070;2023-04-01T17:00:23;4.03;;;2.42;;
67747;SDS011;54543;50.712;6.070;2023-04-01T17:08:43;6.32;;;3.30;;
67747;SDS011;54543;50.712;6.070;2023-04-01T17:11:33;4.80;;;2.88;;
67747;SDS011;54543;50.712;6.070;2023-04-01T17:28:03;7.57;;;3.65;;
67747;SDS011;54543;50.712;6.070;2023-04-01T17:30:38;6.00;;;3.45;;
67747;SDS011;54543;50.712;6.070;2023-04-01T17:33:20;3.63;;;2.33;;
67747;SDS011;54543;50.712;6.070;2023-04-01T17:47:10;4.93;;;2.90;;
67747;SDS011;54543;50.712;6.070;2023-04-01T17:53:11;5.43;;;3.08;;
67747;SDS011;54543;50.712;6.070;2023-04-01T18:04:11;7.05;;;3.28;;
67747;SDS011;54543;50.712;6.070;2023-04-01T18:17:52;4.03;;;2.60;;
67747;SDS011;54543;50.712;6.070;2023-04-01T18:20:27;4.43;;;2.55;;
67747;SDS011;54543;50.712;6.070;2023-04-01T18:25:54;4.60;;;2.78;;
67747;SDS011;54543;50.712;6.070;2023-04-01T18:38:54;7.45;;;3.50;;
67747;SDS011;54543;50.712;6.070;2023-04-01T18:47:07;4.40;;;3.03;;
67747;SDS011;54543;50.712;6.070;2023-04-01T18:53:15;4.85;;;2.90;;
67747;SDS011;54543;50.712;6.070;2023-04-01T18:56:01;4.22;;;2.47;;
67747;SDS011;54543;50.712;6.070;2023-04-01T18:58:45;3.67;;;2.53;;
67747;SDS011;54543;50.712;6.070;2023-04-01T19:01:16;3.65;;;2.40;;
67747;SDS011;54543;50.712;6.070;2023-04-01T19:09:43;4.95;;;2.92;;
67747;SDS011;54543;50.712;6.070;2023-04-01T19:12:25;4.57;;;2.55;;
67747;SDS011;54543;50.712;6.070;2023-04-01T19:15:14;4.35;;;2.88;;
67747;SDS011;54543;50.712;6.070;2023-04-01T19:17:58;6.43;;;2.53;;
67747;SDS011;54543;50.712;6.070;2023-04-01T19:26:00;5.55;;;3.10;;
67747;SDS011;54543;50.712;6.070;2023-04-01T19:36:54;6.82;;;4.40;;
67747;SDS011;54543;50.712;6.070;2023-04-01T19:39:31;5.03;;;3.38;;
67747;SDS011;54543;50.712;6.070;2023-04-01T19:53:25;5.68;;;3.72;;
67747;SDS011;54543;50.712;6.070;2023-04-01T19:56:05;8.32;;;4.57;;
67747;SDS011;54543;50.712;6.070;2023-04-01T19:58:33;4.68;;;2.80;;
67747;SDS011;54543;50.712;6.070;2023-04-01T20:04:37;7.15;;;3.78;;
67747;SDS011;54543;50.712;6.070;2023-04-01T20:07:23;5.78;;;3.22;;
67747;SDS011;54543;50.712;6.070;2023-04-01T20:10:07;6.72;;;3.63;;
67747;SDS011;54543;50.712;6.070;2023-04-01T20:13:05;7.65;;;3.65;;
67747;SDS011;54543;50.712;6.070;2023-04-01T20:16:00;7.20;;;4.10;;
67747;SDS011;54543;50.712;6.070;2023-04-01T20:26:43;6.53;;;4.07;;
67747;SDS011;54543;50.712;6.070;2023-04-01T20:34:40;6.35;;;3.03;;
67747;SDS011;54543;50.712;6.070;2023-04-01T20:37:42;6.70;;;3.80;;
67747;SDS011;54543;50.712;6.070;2023-04-01T20:40:33;6.47;;;3.58;;
67747;SDS011;54543;50.712;6.070;2023-04-01T20:45:52;6.93;;;3.58;;
67747;SDS011;54543;50.712;6.070;2023-04-01T20:57:04;6.05;;;3.63;;
67747;SDS011;54543;50.712;6.070;2023-04-01T21:07:40;4.70;;;3.17;;
67747;SDS011;54543;50.712;6.070;2023-04-01T21:15:59;6.15;;;3.75;;
67747;SDS011;54543;50.712;6.070;2023-04-01T21:18:59;5.45;;;3.10;;
67747;SDS011;54543;50.712;6.070;2023-04-01T21:21:37;5.45;;;2.92;;
67747;SDS011;54543;50.712;6.070;2023-04-01T21:24:30;4.35;;;2.72;;
67747;SDS011;54543;50.712;6.070;2023-04-01T21:41:17;4.90;;;2.75;;
67747;SDS011;54543;50.712;6.070;2023-04-01T21:47:02;5.32;;;3.03;;
67747;SDS011;54543;50.712;6.070;2023-04-01T21:50:07;4.57;;;2.58;;
67747;SDS011;54543;50.712;6.070;2023-04-01T22:04:31;4.57;;;2.63;;
67747;SDS011;54543;50.712;6.070;2023-04-01T22:09:39;3.47;;;2.17;;
67747;SDS011;54543;50.712;6.070;2023-04-01T22:12:26;3.80;;;2.30;;
67747;SDS011;54543;50.712;6.070;2023-04-01T22:15:40;3.65;;;2.00;;
67747;SDS011;54543;50.712;6.070;2023-04-01T22:18:33;4.13;;;2.08;;
67747;SDS011;54543;50.712;6.070;2023-04-01T22:21:19;3.60;;;1.85;;
67747;SDS011;54543;50.712;6.070;2023-04-01T22:26:40;3.55;;;1.75;;
67747;SDS011;54543;50.712;6.070;2023-04-01T22:29:17;2.17;;;1.30;;
67747;SDS011;54543;50.712;6.070;2023-04-01T22:37:21;3.95;;;1.88;;
67747;SDS011;54543;50.712;6.070;2023-04-01T22:56:35;4.15;;;2.25;;
67747;SDS011;54543;50.712;6.070;2023-04-01T23:02:21;3.78;;;2.13;;
67747;SDS011;54543;50.712;6.070;2023-04-01T23:04:56;2.95;;;1.58;;
67747;SDS011;54543;50.712;6.070;2023-04-01T23:13:13;4.32;;;1.48;;
67747;SDS011;54543;50.712;6.070;2023-04-01T23:15:43;2.67;;;1.45;;
67747;SDS011;54543;50.712;6.070;2023-04-01T23:18:51;3.78;;;1.55;;
67747;SDS011;54543;50.712;6.070;2023-04-01T23:21:17;5.32;;;2.30;;
67747;SDS011;54543;50.712;6.070;2023-04-01T23:29:34;3.50;;;1.85;;
67747;SDS011;54543;50.712;6.070;2023-04-01T23:32:02;6.57;;;2.70;;
67747;SDS011;54543;50.712;6.070;2023-04-01T23:34:37;6.32;;;2.90;;
67747;SDS011;54543;50.712;6.070;2023-04-01T23:37:12;4.75;;;2.20;;
67747;SDS011;54543;50.712;6.070;2023-04-01T23:39:51;8.18;;;3.17;;
67747;SDS011;54543;50.712;6.070;2023-04-01T23:43:01;7.15;;;3.10;;
67747;SDS011;54543;50.712;6.070;2023-04-01T23:45:14;6.57;;;2.90;;
67747;SDS011;54543;50.712;6.070;2023-04-01T23:47:42;5.35;;;2.80;;
67747;SDS011;54543;50.712;6.070;2023-04-01T23:50:14;5.43;;;2.67;;
67747;SDS011;54543;50.712;6.070;2023-04-01T23:52:53;4.90;;;2.10;;
67747;SDS011;54543;50.712;6.070;2023-04-01T23:55:26;5.40;;;2.20;;
67747;SDS011;54543;50.712;6.070;2023-04-01T23:58:06;4.90;;;2.53;;
